createdAt,value
2023-04-17T00:00:38.234Z,102583.44
2023-04-17T00:03:06.168Z,102587.34
2023-04-17T00:05:34.024Z,102583.81
2023-04-17T00:08:02.288Z,102586.97
2023-04-17T00:10:31.532Z,102586.97
2023-04-17T00:12:59.250Z,102579.59
2023-04-17T00:15:27.140Z,102570.66
2023-04-17T00:17:54.955Z,102586.22
2023-04-17T00:20:22.771Z,102580.41
2023-04-17T00:22:50.621Z,102580.38
2023-04-17T00:25:18.403Z,102586.16
2023-04-17T00:27:47.554Z,102587.75
2023-04-17T00:30:15.457Z,102585.03
2023-04-17T00:32:43.271Z,102591.63
2023-04-17T00:35:11.327Z,102590.09
2023-04-17T00:37:39.121Z,102584.31
2023-04-17T00:40:08.116Z,102597.59
2023-04-17T00:42:35.979Z,102591.03
2023-04-17T00:45:06.013Z,102585.97
2023-04-17T00:47:34.316Z,102584.81
2023-04-17T00:50:02.088Z,102591.03
2023-04-17T00:52:30.788Z,102594.56
2023-04-17T00:54:59.963Z,102581.31
2023-04-17T00:57:28.142Z,102580.53
2023-04-17T00:59:57.863Z,102587.94
2023-04-17T01:02:27.562Z,102587.94
2023-04-17T01:04:55.479Z,102581.72
2023-04-17T01:07:23.620Z,102581.72
2023-04-17T01:09:51.510Z,102578.63
2023-04-17T01:12:20.585Z,102584.88
2023-04-17T01:14:50.520Z,102587.59
2023-04-17T01:17:20.529Z,102589.56
2023-04-17T01:19:50.900Z,102592.66
2023-04-17T01:22:20.562Z,102592.66
2023-04-17T01:24:52.868Z,102596.97
2023-04-17T01:27:22.566Z,102595.78
2023-04-17T01:29:50.462Z,102588.00
2023-04-17T01:32:19.178Z,102587.28
2023-04-17T01:34:46.940Z,102590.38
2023-04-17T01:37:14.771Z,102588.03
2023-04-17T01:39:42.552Z,102596.97
2023-04-17T01:42:11.720Z,102597.34
2023-04-17T01:44:39.478Z,102597.78
2023-04-17T01:47:07.236Z,102598.16
2023-04-17T01:49:35.019Z,102597.78
2023-04-17T01:52:02.994Z,102598.19
2023-04-17T01:54:30.825Z,102593.53
2023-04-17T01:56:58.804Z,102601.69
2023-04-17T01:59:28.170Z,102602.06
2023-04-17T02:01:56.941Z,102604.78
2023-04-17T02:04:25.683Z,102608.28
2023-04-17T02:06:53.532Z,102598.59
2023-04-17T02:09:21.357Z,102603.63
2023-04-17T02:11:49.120Z,102600.13
2023-04-17T02:14:17.020Z,102602.84
2023-04-17T02:16:46.543Z,102609.03
2023-04-17T02:19:14.455Z,102601.31
2023-04-17T02:21:42.251Z,102602.44
2023-04-17T02:24:10.064Z,102604.38
2023-04-17T02:26:37.899Z,102601.69
2023-04-17T02:29:06.257Z,102597.00
2023-04-17T02:31:34.150Z,102597.03
2023-04-17T02:34:03.303Z,102592.00
2023-04-17T02:36:32.032Z,102599.78
2023-04-17T02:38:59.924Z,102590.81
2023-04-17T02:41:27.675Z,102598.19
2023-04-17T02:43:56.647Z,102596.66
2023-04-17T02:46:24.491Z,102590.41
2023-04-17T02:48:52.287Z,102595.88
2023-04-17T02:51:23.457Z,102594.34
2023-04-17T02:53:51.231Z,102591.22
2023-04-17T02:56:19.095Z,102594.38
2023-04-17T02:58:46.966Z,102596.72
2023-04-17T03:01:14.834Z,102592.03
2023-04-17T03:03:45.707Z,102602.16
2023-04-17T03:06:15.810Z,102592.06
2023-04-17T03:08:45.223Z,102601.03
2023-04-17T03:11:13.291Z,102591.34
2023-04-17T03:13:41.244Z,102599.13
2023-04-17T03:16:09.103Z,102588.63
2023-04-17T03:18:41.144Z,102600.66
2023-04-17T03:21:09.429Z,102602.22
2023-04-17T03:23:37.339Z,102599.50
2023-04-17T03:26:09.285Z,102595.59
2023-04-17T03:28:37.750Z,102597.56
2023-04-17T03:31:06.492Z,102593.69
2023-04-17T03:33:35.269Z,102597.56
2023-04-17T03:36:03.669Z,102596.38
2023-04-17T03:38:31.646Z,102601.41
2023-04-17T03:40:59.753Z,102597.94
2023-04-17T03:43:29.288Z,102604.56
2023-04-17T03:45:57.069Z,102604.94
2023-04-17T03:48:25.022Z,102604.56
2023-04-17T03:50:53.352Z,102603.00
2023-04-17T03:53:21.826Z,102595.59
2023-04-17T03:55:50.971Z,102604.94
2023-04-17T03:58:30.284Z,102601.44
2023-04-17T04:00:58.950Z,102616.19
2023-04-17T04:03:31.467Z,102611.19
2023-04-17T04:06:00.434Z,102604.94
2023-04-17T04:08:28.245Z,102607.66
2023-04-17T04:10:56.288Z,102607.66
2023-04-17T04:13:36.310Z,102598.72
2023-04-17T04:16:05.138Z,102606.91
2023-04-17T04:18:35.263Z,102602.59
2023-04-17T04:21:03.704Z,102609.59
2023-04-17T04:23:37.825Z,102601.44
2023-04-17T04:26:05.919Z,102608.44
2023-04-17T04:28:39.149Z,102606.50
2023-04-17T04:31:10.909Z,102607.28
2023-04-17T04:33:41.415Z,102608.47
2023-04-17T04:36:09.489Z,102612.38
2023-04-17T04:38:37.862Z,102617.41
2023-04-17T04:41:14.836Z,102616.25
2023-04-17T04:43:45.030Z,102620.88
2023-04-17T04:46:13.319Z,102622.81
2023-04-17T04:48:45.788Z,102620.50
2023-04-17T04:51:13.733Z,102624.78
2023-04-17T04:53:42.460Z,102623.63
2023-04-17T04:56:11.080Z,102627.13
2023-04-17T04:58:39.561Z,102629.06
2023-04-17T05:01:08.943Z,102624.81
2023-04-17T05:03:41.650Z,102629.44
2023-04-17T05:06:13.702Z,102627.53
2023-04-17T05:08:46.169Z,102639.97
2023-04-17T05:11:16.605Z,102638.41
2023-04-17T05:13:44.450Z,102636.84
2023-04-17T05:16:21.786Z,102636.44
2023-04-17T05:18:49.868Z,102638.00
2023-04-17T05:21:24.496Z,102646.94
2023-04-17T05:23:53.531Z,102646.94
2023-04-17T05:26:21.998Z,102646.56
2023-04-17T05:28:50.364Z,102652.38
2023-04-17T05:31:25.093Z,102655.88
2023-04-17T05:33:53.190Z,102648.53
2023-04-17T05:36:22.257Z,102656.69
2023-04-17T05:38:51.184Z,102655.50
2023-04-17T05:41:18.909Z,102646.97
2023-04-17T05:43:46.946Z,102651.25
2023-04-17T05:46:14.751Z,102649.72
2023-04-17T05:48:45.588Z,102654.34
2023-04-17T05:51:13.406Z,102654.34
2023-04-17T05:53:41.242Z,102656.66
2023-04-17T05:56:09.030Z,102656.28
2023-04-17T05:58:37.260Z,102648.88
2023-04-17T06:01:06.708Z,102657.81
2023-04-17T06:03:35.444Z,102653.53
2023-04-17T06:06:12.650Z,102660.50
2023-04-17T06:08:41.014Z,102662.47
2023-04-17T06:11:08.865Z,102660.53
2023-04-17T06:13:37.029Z,102667.16
2023-04-17T06:16:05.676Z,102672.97
2023-04-17T06:18:33.518Z,102681.13
2023-04-17T06:21:01.832Z,102675.31
2023-04-17T06:23:31.189Z,102681.13
2023-04-17T06:25:59.013Z,102683.09
2023-04-17T06:28:26.801Z,102694.72
2023-04-17T06:30:55.972Z,102691.25
2023-04-17T06:33:26.521Z,102689.28
2023-04-17T06:35:55.305Z,102688.53
2023-04-17T06:38:50.576Z,102692.81
2023-04-17T06:41:21.256Z,102696.28
2023-04-17T06:43:49.034Z,102697.84
2023-04-17T06:46:16.878Z,102698.22
2023-04-17T06:48:44.668Z,102702.88
2023-04-17T06:51:12.499Z,102708.31
2023-04-17T06:53:40.337Z,102718.03
2023-04-17T06:56:09.610Z,102709.88
2023-04-17T06:58:43.844Z,102713.38
2023-04-17T07:01:12.155Z,102709.88
2023-04-17T07:03:40.993Z,102719.19
2023-04-17T07:06:09.373Z,102717.63
2023-04-17T07:08:37.148Z,102720.72
2023-04-17T07:11:04.955Z,102726.13
2023-04-17T07:13:34.088Z,102724.97
2023-04-17T07:16:02.250Z,102729.63
2023-04-17T07:18:30.449Z,102737.78
2023-04-17T07:20:58.313Z,102735.03
2023-04-17T07:23:26.286Z,102743.19
2023-04-17T07:25:54.153Z,102745.13
2023-04-17T07:28:22.323Z,102733.06
2023-04-17T07:30:52.924Z,102735.78
2023-04-17T07:33:20.724Z,102744.28
2023-04-17T07:35:48.492Z,102738.06
2023-04-17T07:38:16.744Z,102731.44
2023-04-17T07:40:44.568Z,102743.13
2023-04-17T07:43:12.459Z,102736.84
2023-04-17T07:45:41.759Z,102728.66
2023-04-17T07:48:11.480Z,102745.00
2023-04-17T07:50:39.282Z,102737.59
2023-04-17T07:53:08.292Z,102740.28
2023-04-17T07:55:36.176Z,102743.75
2023-04-17T07:58:04.341Z,102746.47
2023-04-17T08:00:32.460Z,102744.94
2023-04-17T08:03:02.208Z,102748.84
2023-04-17T08:05:32.238Z,102747.25
2023-04-17T08:08:01.049Z,102754.22
2023-04-17T08:10:29.443Z,102739.00
2023-04-17T08:12:57.219Z,102749.06
2023-04-17T08:15:25.128Z,102749.81
2023-04-17T08:17:52.951Z,102750.59
2023-04-17T08:20:21.017Z,102746.69
2023-04-17T08:22:50.191Z,102742.38
2023-04-17T08:25:18.029Z,102744.69
2023-04-17T08:27:46.312Z,102748.16
2023-04-17T08:30:18.602Z,102755.53
2023-04-17T08:32:48.180Z,102754.34
2023-04-17T08:35:17.237Z,102759.03
2023-04-17T08:37:46.751Z,102756.66
2023-04-17T08:40:17.162Z,102760.91
2023-04-17T08:42:47.683Z,102753.84
2023-04-17T08:45:16.260Z,102767.41
2023-04-17T08:47:44.485Z,102754.53
2023-04-17T08:50:14.330Z,102757.19
2023-04-17T08:52:43.525Z,102759.47
2023-04-17T08:55:13.899Z,102761.00
2023-04-17T08:58:00.792Z,102753.47
2023-04-17T09:00:30.799Z,102763.03
2023-04-17T09:03:01.192Z,102761.34
2023-04-17T09:05:33.285Z,102761.19
2023-04-17T09:08:09.894Z,102762.53
2023-04-17T09:10:38.823Z,102768.88
2023-04-17T09:13:08.542Z,102763.22
2023-04-17T09:15:37.387Z,102759.84
2023-04-17T09:18:05.460Z,102757.66
2023-04-17T09:20:33.642Z,102765.75
2023-04-17T09:23:03.094Z,102767.91
2023-04-17T09:25:31.170Z,102768.94
2023-04-17T09:28:13.768Z,102761.81
2023-04-17T09:30:42.177Z,102762.09
2023-04-17T09:33:11.753Z,102767.09
2023-04-17T09:35:40.366Z,102769.50
2023-04-17T09:38:08.811Z,102772.16
2023-04-17T09:40:40.768Z,102773.13
2023-04-17T09:43:10.521Z,102768.63
2023-04-17T09:45:42.965Z,102772.38
2023-04-17T09:48:13.098Z,102774.69
2023-04-17T09:50:41.193Z,102771.16
2023-04-17T09:53:09.424Z,102762.28
2023-04-17T09:55:38.789Z,102779.78
2023-04-17T09:58:08.423Z,102778.63
2023-04-17T10:00:37.904Z,102779.81
2023-04-17T10:03:08.411Z,102776.47
2023-04-17T10:05:36.790Z,102779.97
2023-04-17T10:08:05.449Z,102777.88
2023-04-17T10:10:34.947Z,102783.78
2023-04-17T10:13:04.817Z,102786.34
2023-04-17T10:15:34.088Z,102784.72
2023-04-17T10:18:23.020Z,102775.19
2023-04-17T10:20:53.105Z,102778.50
2023-04-17T10:23:34.546Z,102769.13
2023-04-17T10:26:37.960Z,102774.63
2023-04-17T10:29:05.846Z,102773.13
2023-04-17T10:32:26.131Z,102774.84
2023-04-17T10:34:57.162Z,102770.97
2023-04-17T10:38:03.381Z,102772.09
2023-04-17T10:40:32.313Z,102768.84
2023-04-17T10:43:05.377Z,102762.00
2023-04-17T10:45:59.570Z,102764.16
2023-04-17T10:48:29.271Z,102749.09
2023-04-17T10:50:58.449Z,102760.19
2023-04-17T10:53:40.467Z,102750.56
2023-04-17T10:56:08.685Z,102757.34
2023-04-17T10:58:41.178Z,102746.28
2023-04-17T11:01:13.011Z,102742.69
2023-04-17T11:03:42.306Z,102737.81
2023-04-17T11:06:14.134Z,102749.00
2023-04-17T11:08:43.271Z,102746.63
2023-04-17T11:11:11.858Z,102739.16
2023-04-17T11:13:41.997Z,102736.78
2023-04-17T11:16:10.457Z,102734.03
2023-04-17T11:18:38.913Z,102731.28
2023-04-17T11:21:06.805Z,102737.09
2023-04-17T11:23:36.223Z,102738.22
2023-04-17T11:26:04.126Z,102731.72
2023-04-17T11:28:31.986Z,102737.44
2023-04-17T11:31:00.959Z,102734.53
2023-04-17T11:33:29.158Z,102728.00
2023-04-17T11:35:56.961Z,102728.09
2023-04-17T11:38:24.856Z,102730.69
2023-04-17T11:40:55.504Z,102718.94
2023-04-17T11:43:24.556Z,102715.75
2023-04-17T11:45:54.508Z,102720.19
2023-04-17T11:48:24.144Z,102711.50
2023-04-17T11:50:56.357Z,102710.63
2023-04-17T11:53:24.429Z,102706.78
2023-04-17T11:56:17.945Z,102703.22
2023-04-17T11:58:50.188Z,102703.13
2023-04-17T12:01:19.476Z,102707.81
2023-04-17T12:03:48.658Z,102704.44
2023-04-17T12:06:16.813Z,102710.13
2023-04-17T12:08:50.287Z,102711.91
2023-04-17T12:11:29.826Z,102705.19
2023-04-17T12:13:58.206Z,102717.47
2023-04-17T12:16:27.613Z,102712.28
2023-04-17T12:18:55.916Z,102706.34
2023-04-17T12:21:24.684Z,102711.91
2023-04-17T12:23:52.854Z,102709.50
2023-04-17T12:26:20.654Z,102719.69
2023-04-17T12:28:49.783Z,102719.16
2023-04-17T12:31:17.610Z,102711.72
2023-04-17T12:33:45.482Z,102713.47
2023-04-17T12:36:13.356Z,102715.69
2023-04-17T12:38:43.009Z,102713.19
2023-04-17T12:41:11.002Z,102711.22
2023-04-17T12:43:38.869Z,102718.41
2023-04-17T12:46:08.179Z,102716.91
2023-04-17T12:48:36.139Z,102715.00
2023-04-17T12:51:03.974Z,102716.44
2023-04-17T12:53:31.884Z,102716.47
2023-04-17T12:55:59.710Z,102714.94
2023-04-17T12:58:27.498Z,102721.31
2023-04-17T13:00:55.320Z,102708.38
2023-04-17T13:03:24.579Z,102707.47
2023-04-17T13:05:53.388Z,102704.16
2023-04-17T13:08:21.389Z,102707.09
2023-04-17T13:10:49.169Z,102700.16
2023-04-17T13:13:16.957Z,102712.16
2023-04-17T13:15:48.145Z,102703.78
2023-04-17T13:18:16.160Z,102707.06
2023-04-17T13:20:45.292Z,102700.94
2023-04-17T13:23:14.417Z,102697.94
2023-04-17T13:25:42.407Z,102697.44
2023-04-17T13:28:10.193Z,102698.91
2023-04-17T13:30:38.085Z,102694.41
2023-04-17T13:33:06.068Z,102693.75
2023-04-17T13:35:33.940Z,102691.41
2023-04-17T13:38:03.317Z,102695.19
2023-04-17T13:40:31.427Z,102683.13
2023-04-17T13:43:00.318Z,102688.72
2023-04-17T13:45:28.222Z,102686.97
2023-04-17T13:47:56.083Z,102682.91
2023-04-17T13:50:24.000Z,102675.84
2023-04-17T13:52:51.757Z,102671.44
2023-04-17T13:55:20.960Z,102676.59
2023-04-17T13:57:48.798Z,102672.84
2023-04-17T14:00:18.259Z,102670.06
2023-04-17T14:02:46.232Z,102661.69
2023-04-17T14:05:14.395Z,102670.03
2023-04-17T14:07:42.259Z,102658.16
2023-04-17T14:10:11.082Z,102661.97
2023-04-17T14:12:40.436Z,102660.63
2023-04-17T14:15:09.299Z,102661.50
2023-04-17T14:17:41.002Z,102656.22
2023-04-17T14:20:10.287Z,102650.09
2023-04-17T14:22:38.056Z,102655.13
2023-04-17T14:25:06.667Z,102650.69
2023-04-17T14:27:35.645Z,102647.50
2023-04-17T14:30:05.534Z,102651.94
2023-04-17T14:32:33.394Z,102652.09
2023-04-17T14:35:01.721Z,102644.50
2023-04-17T14:37:29.648Z,102634.53
2023-04-17T14:39:57.494Z,102637.47
2023-04-17T14:42:25.362Z,102635.09
2023-04-17T14:44:53.130Z,102638.72
2023-04-17T14:47:22.370Z,102634.63
2023-04-17T14:49:50.972Z,102630.34
2023-04-17T14:52:18.768Z,102632.16
2023-04-17T14:54:46.591Z,102624.59
2023-04-17T14:57:14.361Z,102624.44
2023-04-17T14:59:44.368Z,102631.59
2023-04-17T15:02:12.567Z,102625.97
2023-04-17T15:04:42.335Z,102626.59
2023-04-17T15:07:10.350Z,102632.81
2023-04-17T15:09:38.127Z,102620.09
2023-04-17T15:12:06.241Z,102622.03
2023-04-17T15:14:34.071Z,102622.81
2023-04-17T15:17:03.065Z,102622.44
2023-04-17T15:19:31.108Z,102625.75
2023-04-17T15:22:00.337Z,102625.56
2023-04-17T15:24:28.139Z,102622.72
2023-04-17T15:26:56.504Z,102616.22
2023-04-17T15:29:24.336Z,102620.47
2023-04-17T15:31:53.374Z,102621.63
2023-04-17T15:34:21.305Z,102620.28
2023-04-17T15:36:49.117Z,102622.97
2023-04-17T15:39:18.220Z,102618.75
2023-04-17T15:41:45.987Z,102627.34
2023-04-17T15:44:13.767Z,102632.34
2023-04-17T15:46:41.679Z,102620.00
2023-04-17T15:49:09.625Z,102617.13
2023-04-17T15:51:39.008Z,102616.38
2023-04-17T15:54:08.773Z,102614.66
2023-04-17T15:56:37.928Z,102622.84
2023-04-17T15:59:05.658Z,102612.66
2023-04-17T16:01:33.507Z,102614.97
2023-04-17T16:04:01.518Z,102614.44
2023-04-17T16:06:29.554Z,102615.03
2023-04-17T16:08:57.378Z,102611.03
2023-04-17T16:11:25.614Z,102611.88
2023-04-17T16:13:54.738Z,102605.09
2023-04-17T16:16:22.587Z,102608.94
2023-04-17T16:18:50.573Z,102609.47
2023-04-17T16:21:18.311Z,102602.91
2023-04-17T16:23:46.099Z,102602.91
2023-04-17T16:26:15.195Z,102606.22
2023-04-17T16:28:43.197Z,102598.28
2023-04-17T16:31:16.890Z,102602.97
2023-04-17T16:33:45.013Z,102600.47
2023-04-17T16:36:12.780Z,102598.16
2023-04-17T16:38:40.593Z,102600.00
2023-04-17T16:41:08.998Z,102596.94
2023-04-17T16:43:36.781Z,102599.00
2023-04-17T16:46:14.467Z,102605.22
2023-04-17T16:48:50.535Z,102606.22
2023-04-17T16:51:20.345Z,102611.03
2023-04-17T16:53:48.182Z,102609.78
2023-04-17T16:56:16.182Z,102603.25
2023-04-17T16:58:44.017Z,102602.53
2023-04-17T17:01:11.855Z,102605.66
2023-04-17T17:03:39.795Z,102601.97
2023-04-17T17:06:09.106Z,102607.69
2023-04-17T17:08:37.062Z,102607.38
2023-04-17T17:11:05.048Z,102597.28
2023-04-17T17:13:32.820Z,102608.47
2023-04-17T17:16:00.618Z,102607.94
2023-04-17T17:18:28.420Z,102609.94
2023-04-17T17:20:58.521Z,102609.34
2023-04-17T17:23:27.794Z,102606.56
2023-04-17T17:25:55.578Z,102614.53
2023-04-17T17:28:23.359Z,102606.56
2023-04-17T17:30:51.120Z,102610.09
2023-04-17T17:33:18.956Z,102605.97
2023-04-17T17:35:46.739Z,102610.28
2023-04-17T17:38:14.535Z,102611.16
2023-04-17T17:40:43.696Z,102602.25
2023-04-17T17:43:12.338Z,102600.88
2023-04-17T17:45:40.292Z,102600.25
2023-04-17T17:48:09.596Z,102600.44
2023-04-17T17:50:37.433Z,102605.31
2023-04-17T17:53:05.252Z,102595.91
2023-04-17T17:55:37.343Z,102600.81
2023-04-17T17:58:07.572Z,102604.78
2023-04-17T18:00:35.891Z,102602.50
2023-04-17T18:03:03.957Z,102604.66
2023-04-17T18:05:31.850Z,102601.78
2023-04-17T18:07:59.617Z,102604.66
2023-04-17T18:10:27.375Z,102599.59
2023-04-17T18:12:55.143Z,102609.50
2023-04-17T18:15:24.331Z,102605.50
2023-04-17T18:17:52.423Z,102604.13
2023-04-17T18:20:20.410Z,102618.81
2023-04-17T18:22:48.166Z,102618.19
2023-04-17T18:25:16.144Z,102624.75
2023-04-17T18:27:45.094Z,102618.00
2023-04-17T18:30:14.175Z,102622.50
2023-04-17T18:32:43.425Z,102626.50
2023-04-17T18:35:11.597Z,102624.69
2023-04-17T18:37:39.615Z,102627.75
2023-04-17T18:40:10.430Z,102626.78
2023-04-17T18:42:38.259Z,102627.47
2023-04-17T18:45:07.195Z,102627.13
2023-04-17T18:47:34.979Z,102623.97
2023-04-17T18:50:04.762Z,102633.50
2023-04-17T18:52:32.563Z,102635.59
2023-04-17T18:55:02.123Z,102637.75
2023-04-17T18:57:30.031Z,102641.06
2023-04-17T18:59:57.805Z,102644.38
2023-04-17T19:02:25.812Z,102641.66
2023-04-17T19:04:56.072Z,102646.97
2023-04-17T19:07:25.471Z,102640.56
2023-04-17T19:09:53.269Z,102649.47
2023-04-17T19:12:21.089Z,102651.88
2023-04-17T19:14:48.863Z,102651.56
2023-04-17T19:17:16.965Z,102654.97
2023-04-17T19:19:44.810Z,102655.31
2023-04-17T19:22:14.114Z,102662.47
2023-04-17T19:24:46.601Z,102657.41
2023-04-17T19:27:14.699Z,102663.78
2023-04-17T19:29:42.492Z,102663.56
2023-04-17T19:32:10.637Z,102661.31
2023-04-17T19:34:38.492Z,102658.38
2023-04-17T19:37:06.550Z,102667.59
2023-04-17T19:39:34.347Z,102669.03
2023-04-17T19:42:03.855Z,102668.25
2023-04-17T19:44:31.669Z,102674.41
2023-04-17T19:46:59.738Z,102667.78
2023-04-17T19:49:27.551Z,102666.47
2023-04-17T19:51:57.696Z,102671.28
2023-04-17T19:54:28.708Z,102671.28
2023-04-17T19:56:56.296Z,102670.97
2023-04-17T19:59:25.467Z,102669.63
2023-04-17T20:01:53.351Z,102668.38
2023-04-17T20:04:21.424Z,102674.16
2023-04-17T20:06:49.376Z,102673.59
2023-04-17T20:09:18.187Z,102674.75
2023-04-17T20:11:46.148Z,102664.53
2023-04-17T20:14:14.720Z,102672.69
2023-04-17T20:16:46.192Z,102669.53
2023-04-17T20:19:14.572Z,102679.91
2023-04-17T20:21:43.978Z,102672.78
2023-04-17T20:24:12.937Z,102668.34
2023-04-17T20:26:40.679Z,102683.78
2023-04-17T20:29:08.489Z,102678.63
2023-04-17T20:31:36.510Z,102669.72
2023-04-17T20:34:05.773Z,102675.53
2023-04-17T20:36:33.557Z,102671.50
2023-04-17T20:39:01.300Z,102674.03
2023-04-17T20:41:29.099Z,102672.94
2023-04-17T20:43:58.990Z,102666.75
2023-04-17T20:46:26.974Z,102668.78
2023-04-17T20:48:54.974Z,102665.69
2023-04-17T20:51:26.411Z,102668.13
2023-04-17T20:53:54.356Z,102674.50
2023-04-17T20:56:23.865Z,102668.69
2023-04-17T20:58:51.682Z,102670.81
2023-04-17T21:01:20.484Z,102668.84
2023-04-17T21:03:48.429Z,102673.03
2023-04-17T21:06:17.642Z,102666.44
2023-04-17T21:08:46.777Z,102670.09
2023-04-17T21:11:14.567Z,102667.41
2023-04-17T21:13:42.312Z,102667.78
2023-04-17T21:16:11.500Z,102669.81
2023-04-17T21:18:39.507Z,102670.28
2023-04-17T21:21:07.388Z,102666.56
2023-04-17T21:23:35.185Z,102669.53
2023-04-17T21:26:04.891Z,102666.50
2023-04-17T21:28:32.689Z,102666.91
2023-04-17T21:31:00.468Z,102666.25
2023-04-17T21:33:28.289Z,102653.50
2023-04-17T21:35:56.072Z,102653.22
2023-04-17T21:38:23.829Z,102664.56
2023-04-17T21:40:51.825Z,102668.56
2023-04-17T21:43:20.950Z,102669.34
2023-04-17T21:45:49.848Z,102665.91
2023-04-17T21:48:18.072Z,102667.19
2023-04-17T21:50:45.860Z,102666.19
2023-04-17T21:53:13.646Z,102668.28
2023-04-17T21:55:41.400Z,102669.06
2023-04-17T21:58:09.185Z,102672.66
2023-04-17T22:00:38.353Z,102668.81
2023-04-17T22:03:06.231Z,102668.41
2023-04-17T22:05:34.079Z,102671.66
2023-04-17T22:08:02.276Z,102672.97
2023-04-17T22:10:30.143Z,102673.38
2023-04-17T22:12:57.910Z,102674.00
2023-04-17T22:15:25.830Z,102680.31
2023-04-17T22:17:55.099Z,102679.94
2023-04-17T22:20:22.952Z,102677.19
2023-04-17T22:23:09.296Z,102674.97
2023-04-17T22:25:54.569Z,102668.78
2023-04-17T22:29:17.177Z,102674.72
2023-04-17T22:32:03.880Z,102671.59
2023-04-17T22:35:28.354Z,102680.19
2023-04-17T22:39:09.630Z,102678.31
2023-04-17T22:42:32.192Z,102681.09
2023-04-17T22:45:18.657Z,102684.31
2023-04-17T22:47:46.451Z,102686.19
2023-04-17T22:50:15.674Z,102685.63
2023-04-17T22:52:43.424Z,102682.16
2023-04-17T22:55:11.256Z,102691.94
2023-04-17T22:57:39.099Z,102694.66
2023-04-17T23:00:08.936Z,102693.13
2023-04-17T23:02:37.210Z,102690.84
2023-04-17T23:05:06.503Z,102683.16
2023-04-17T23:07:35.688Z,102678.47
2023-04-17T23:10:03.596Z,102685.50
2023-04-17T23:12:32.573Z,102676.16
2023-04-17T23:15:00.465Z,102680.91
2023-04-17T23:17:28.236Z,102678.72
2023-04-17T23:19:56.022Z,102686.13
2023-04-17T23:22:23.916Z,102688.88
2023-04-17T23:24:53.159Z,102679.53
2023-04-17T23:27:21.449Z,102684.25
2023-04-17T23:29:49.189Z,102689.69
2023-04-17T23:32:16.956Z,102694.47
2023-04-17T23:34:44.701Z,102687.81
2023-04-17T23:37:12.475Z,102692.50
2023-04-17T23:39:40.537Z,102688.28
2023-04-17T23:42:09.979Z,102690.22
2023-04-17T23:44:37.749Z,102691.50
2023-04-17T23:47:06.227Z,102688.78
2023-04-17T23:49:34.279Z,102689.16
2023-04-17T23:52:02.043Z,102703.25
2023-04-17T23:54:29.785Z,102690.44
2023-04-17T23:56:58.049Z,102686.25
2023-04-17T23:59:27.219Z,102683.22
